Time;durP1;ratioP1;P1;durP2;ratioP2;P2;SDS_P1;SDS_P2;PMS_P1;PMS_P2;Temp;Humidity;BMP_temperature;BMP_pressure;BME280_temperature;BME280_humidity;BME280_pressure;Samples;Min_cycle;Max_cycle;Signal;HPM_P1;HPM_P2
2023/05/02 00:00:00;;;;;;;6.95;3.80;;;;;;;12.90;100.00;101359.66;2100162;28;20040;-75
2023/05/02 00:01:22;;;;;;;4.53;3.30;;;;;;;12.86;100.00;101369.34;2102556;27;20058;-75
2023/05/02 00:02:44;;;;;;;6.40;2.97;;;;;;;12.76;100.00;101365.63;2103075;28;20032;-75
2023/05/02 00:04:07;;;;;;;3.67;2.92;;;;;;;12.73;100.00;101362.06;2100303;28;20044;-75
2023/05/02 00:05:31;;;;;;;5.07;3.15;;;;;;;12.73;100.00;101362.06;2101752;28;20040;-76
2023/05/02 00:06:52;;;;;;;5.47;3.20;;;;;;;12.73;100.00;101356.75;2101275;28;20055;-76
2023/05/02 00:08:15;;;;;;;4.80;3.15;;;;;;;12.73;100.00;101352.31;2101553;28;20097;-75
2023/05/02 00:09:37;;;;;;;6.55;3.97;;;;;;;12.76;100.00;101354.13;2100247;28;20071;-75
2023/05/02 00:11:00;;;;;;;6.47;3.95;;;;;;;12.77;100.00;101356.81;2098826;28;20094;-76
2023/05/02 00:12:22;;;;;;;5.80;3.95;;;;;;;12.75;100.00;101345.31;2094672;28;20055;-75
2023/05/02 00:13:44;;;;;;;5.15;3.58;;;;;;;12.71;100.00;101348.78;2102464;28;20044;-75
2023/05/02 00:15:07;;;;;;;7.10;4.03;;;;;;;12.70;100.00;101348.75;2101225;28;20123;-75
2023/05/02 00:16:29;;;;;;;6.15;4.03;;;;;;;12.72;100.00;101353.22;2100536;28;20255;-75
2023/05/02 00:17:51;;;;;;;5.32;3.50;;;;;;;12.71;100.00;101361.13;2100527;28;20051;-75
2023/05/02 00:19:14;;;;;;;5.85;3.90;;;;;;;12.72;100.00;101358.50;2105059;28;20051;-75
2023/05/02 00:20:39;;;;;;;5.85;3.17;;;;;;;12.72;100.00;101357.63;2102290;28;20044;-75
2023/05/02 00:22:01;;;;;;;7.18;3.90;;;;;;;12.70;100.00;101357.59;2094445;28;20484;-75
2023/05/02 00:23:24;;;;;;;7.70;3.85;;;;;;;12.71;100.00;101362.03;2100164;28;20055;-75
2023/05/02 00:24:46;;;;;;;4.65;3.55;;;;;;;12.69;100.00;101355.81;2095833;28;20412;-75
2023/05/02 00:26:09;;;;;;;5.70;3.88;;;;;;;12.62;100.00;101359.22;2102535;28;20055;-74
2023/05/02 00:27:33;;;;;;;5.90;3.75;;;;;;;12.54;100.00;101358.19;2094652;28;20047;-75
2023/05/02 00:28:55;;;;;;;6.63;4.07;;;;;;;12.52;100.00;101369.63;2099515;28;20051;-75
2023/05/02 00:30:17;;;;;;;5.82;3.72;;;;;;;12.54;100.00;101367.88;2096889;28;20043;-74
2023/05/02 00:31:41;;;;;;;6.20;4.45;;;;;;;12.57;100.00;101374.13;2099999;28;20051;-75
2023/05/02 00:33:05;;;;;;;5.43;3.60;;;;;;;12.60;100.00;101373.31;2094375;28;20106;-75
2023/05/02 00:34:29;;;;;;;6.43;3.60;;;;;;;12.61;100.00;101370.66;2084106;28;20053;-76
2023/05/02 00:35:53;;;;;;;4.63;3.78;;;;;;;12.62;100.00;101374.22;2085942;28;20037;-76
2023/05/02 00:37:14;;;;;;;5.80;3.88;;;;;;;12.61;100.00;101373.31;2083575;28;20057;-75
2023/05/02 00:38:37;;;;;;;5.22;3.60;;;;;;;12.61;100.00;101369.78;2097179;28;20040;-75
2023/05/02 00:39:59;;;;;;;7.88;3.38;;;;;;;12.62;100.00;101363.63;2097340;28;20040;-75
2023/05/02 00:41:20;;;;;;;5.07;3.78;;;;;;;12.63;100.00;101360.09;2107908;28;20458;-75
2023/05/02 00:42:42;;;;;;;5.72;3.65;;;;;;;12.62;100.00;101360.97;2110609;28;20084;-75
2023/05/02 00:44:05;;;;;;;6.03;3.95;;;;;;;12.63;100.00;101366.28;2111052;28;20051;-75
2023/05/02 00:45:27;;;;;;;6.65;4.40;;;;;;;12.60;100.00;101360.06;2101455;28;20051;-75
2023/05/02 00:46:49;;;;;;;6.97;4.07;;;;;;;12.59;100.00;101369.78;2105761;28;20031;-75
2023/05/02 00:48:12;;;;;;;5.30;3.92;;;;;;;12.58;100.00;101367.09;2088690;28;20057;-75
2023/05/02 00:49:36;;;;;;;5.65;3.90;;;;;;;12.57;100.00;101371.50;2091022;28;20040;-75
2023/05/02 00:51:03;;;;;;;6.47;4.30;;;;;;;12.59;100.00;101371.53;2100247;28;20040;-75
2023/05/02 00:52:26;;;;;;;5.78;4.07;;;;;;;12.58;100.00;101367.97;2093603;28;20165;-75
2023/05/02 00:53:49;;;;;;;7.13;4.15;;;;;;;12.56;100.00;101366.16;2106963;28;20055;-75
2023/05/02 00:55:11;;;;;;;6.30;4.22;;;;;;;12.51;100.00;101370.50;2104653;28;20373;-75
2023/05/02 00:56:33;;;;;;;5.63;3.70;;;;;;;12.48;100.00;101373.06;2102384;28;20109;-75
2023/05/02 00:57:55;;;;;;;5.38;3.55;;;;;;;12.47;100.00;101366.03;2090988;28;20044;-75
2023/05/02 00:59:17;;;;;;;5.18;3.60;;;;;;;12.47;100.00;101364.25;2083264;28;20571;-76
2023/05/02 01:00:53;;;;;;;7.32;3.70;;;;;;;12.47;100.00;101369.53;2100268;28;20055;-75
2023/05/02 01:02:29;;;;;;;5.75;3.92;;;;;;;12.48;100.00;101376.63;2095703;28;20461;-75
2023/05/02 01:04:02;;;;;;;5.63;4.03;;;;;;;12.49;100.00;101375.75;2092122;28;20062;-75
2023/05/02 01:05:30;;;;;;;5.65;4.28;;;;;;;12.49;100.00;101375.75;2101484;28;20153;-75
2023/05/02 01:07:06;;;;;;;7.55;4.50;;;;;;;12.45;100.00;101375.69;2103517;28;20044;-75
2023/05/02 01:08:37;;;;;;;6.38;4.40;;;;;;;12.40;100.00;101372.97;2101837;28;20105;-75
2023/05/02 01:10:13;;;;;;;5.63;3.60;;;;;;;12.37;100.00;101371.13;2093714;28;20037;-75
2023/05/02 01:11:48;;;;;;;5.80;3.85;;;;;;;12.38;100.00;101366.75;2095560;28;20048;-75
2023/05/02 01:13:17;;;;;;;6.28;3.97;;;;;;;12.38;100.00;101369.38;2103338;28;20036;-75
2023/05/02 01:14:43;;;;;;;5.60;4.10;;;;;;;12.35;100.00;101372.84;2095751;28;20481;-76
2023/05/02 01:16:07;;;;;;;6.80;4.03;;;;;;;12.34;100.00;101378.13;2091393;28;20462;-75
2023/05/02 01:17:33;;;;;;;5.68;4.25;;;;;;;12.34;100.00;101381.66;2100780;28;20043;-76
2023/05/02 01:18:57;;;;;;;5.65;3.83;;;;;;;12.32;100.00;101378.13;2088660;28;20037;-76
2023/05/02 01:20:23;;;;;;;6.35;4.18;;;;;;;12.31;100.00;101375.44;2093608;28;20432;-75
2023/05/02 01:21:47;;;;;;;4.43;3.72;;;;;;;12.31;100.00;101372.78;2100716;28;20094;-74
2023/05/02 01:23:23;;;;;;;6.07;3.80;;;;;;;12.35;100.00;101377.25;2101018;28;20523;-74
2023/05/02 01:24:55;;;;;;;6.55;4.47;;;;;;;12.37;100.00;101380.84;2102901;28;20060;-75
2023/05/02 01:26:27;;;;;;;6.43;4.63;;;;;;;12.35;100.00;101377.25;2103908;28;20130;-75
2023/05/02 01:28:02;;;;;;;6.85;4.50;;;;;;;12.32;100.00;101387.81;2103796;28;20047;-75
2023/05/02 01:29:29;;;;;;;7.13;4.70;;;;;;;12.23;100.00;101383.22;2104730;28;20048;-76
2023/05/02 01:30:55;;;;;;;5.68;4.00;;;;;;;12.17;100.00;101379.56;2099170;28;20104;-76
2023/05/02 01:32:21;;;;;;;6.05;3.90;;;;;;;12.18;100.00;101381.38;2086030;28;20057;-76
2023/05/02 01:33:46;;;;;;;6.13;4.10;;;;;;;12.21;100.00;101384.06;2092085;28;20041;-76
2023/05/02 01:35:09;;;;;;;6.55;4.43;;;;;;;12.23;100.00;101380.59;2099387;28;20458;-75
2023/05/02 01:36:35;;;;;;;5.43;4.28;;;;;;;12.21;100.00;101381.41;2099393;28;20040;-76
2023/05/02 01:37:59;;;;;;;6.40;4.78;;;;;;;12.18;100.00;101376.06;2094090;28;20768;-75
2023/05/02 01:39:24;;;;;;;6.50;5.35;;;;;;;12.16;100.00;101377.78;2091324;28;20130;-76
2023/05/02 01:40:47;;;;;;;6.57;4.88;;;;;;;12.16;100.00;101383.06;2092112;28;20056;-76
2023/05/02 01:42:12;;;;;;;8.38;5.05;;;;;;;12.14;100.00;101374.25;2101936;28;20128;-75
2023/05/02 01:43:37;;;;;;;6.40;4.53;;;;;;;12.11;100.00;101379.47;2096393;28;20139;-75
2023/05/02 01:45:04;;;;;;;7.65;4.53;;;;;;;12.09;100.00;101370.59;2100080;28;20058;-75
2023/05/02 01:46:28;;;;;;;5.55;4.18;;;;;;;12.08;100.00;101369.69;2096197;28;20056;-75
2023/05/02 01:47:52;;;;;;;6.15;4.40;;;;;;;12.11;100.00;101375.06;2091004;28;20037;-75
2023/05/02 01:49:14;;;;;;;5.70;4.70;;;;;;;12.13;100.00;101380.38;2105001;28;20128;-75
2023/05/02 01:50:39;;;;;;;5.80;4.60;;;;;;;12.13;100.00;101383.03;2088222;28;20131;-75
2023/05/02 01:52:05;;;;;;;7.95;5.15;;;;;;;12.11;100.00;101387.41;2091671;28;20044;-75
2023/05/02 01:53:30;;;;;;;7.25;5.00;;;;;;;12.10;100.00;101388.25;2092653;28;20615;-75
2023/05/02 01:54:55;;;;;;;6.72;4.95;;;;;;;12.07;100.00;101380.28;2108795;28;20085;-75
2023/05/02 01:56:21;;;;;;;5.80;4.40;;;;;;;12.03;100.00;101378.41;2104639;28;20121;-75
2023/05/02 01:57:45;;;;;;;7.22;4.47;;;;;;;12.00;100.00;101378.38;2102402;28;20056;-75
2023/05/02 01:59:09;;;;;;;6.75;4.57;;;;;;;11.99;100.00;101382.78;2094126;28;20054;-75
2023/05/02 02:00:33;;;;;;;6.55;4.25;;;;;;;12.01;100.00;101377.50;2092061;28;20053;-75
2023/05/02 02:01:56;;;;;;;6.57;3.95;;;;;;;12.02;100.00;101376.63;2093795;28;20078;-75
2023/05/02 02:03:19;;;;;;;8.13;4.70;;;;;;;12.01;100.00;101373.13;2096592;28;20048;-75
2023/05/02 02:04:43;;;;;;;7.00;4.50;;;;;;;12.02;100.00;101372.22;2094100;28;20044;-75
2023/05/02 02:06:07;;;;;;;8.27;4.53;;;;;;;12.04;100.00;101374.91;2085862;28;20535;-75
2023/05/02 02:07:28;;;;;;;5.97;4.80;;;;;;;12.01;100.00;101372.22;2091530;28;20079;-75
2023/05/02 02:08:51;;;;;;;7.45;5.38;;;;;;;11.98;100.00;101371.28;2090553;28;20139;-76
2023/05/02 02:10:13;;;;;;;6.57;4.50;;;;;;;11.96;100.00;101370.34;2084037;28;20518;-75
2023/05/02 02:11:43;;;;;;;9.50;5.05;;;;;;;11.92;100.00;101365.88;2094004;28;20044;-75
2023/05/02 02:13:13;;;;;;;6.97;4.68;;;;;;;11.86;100.00;101368.41;2088123;28;20090;-75
2023/05/02 02:14:37;;;;;;;5.93;4.75;;;;;;;11.85;100.00;101371.00;2101480;28;20505;-75
2023/05/02 02:16:04;;;;;;;6.50;4.93;;;;;;;11.86;100.00;101373.69;2096841;28;20118;-75
2023/05/02 02:17:32;;;;;;;7.03;4.40;;;;;;;11.86;100.00;101371.06;2110715;28;20451;-75
2023/05/02 02:18:56;;;;;;;7.38;4.95;;;;;;;11.86;100.00;101371.06;2104218;28;20506;-75
2023/05/02 02:20:19;;;;;;;8.13;4.40;;;;;;;11.87;100.00;101375.50;2095509;28;20857;-75
2023/05/02 02:21:44;;;;;;;8.55;5.32;;;;;;;11.90;100.00;101379.94;2094453;28;20574;-75
2023/05/02 02:23:08;;;;;;;7.03;4.72;;;;;;;11.89;100.00;101380.78;2100148;28;20044;-75
2023/05/02 02:24:31;;;;;;;6.78;4.90;;;;;;;11.88;100.00;101379.03;2106463;28;20139;-75
2023/05/02 02:25:55;;;;;;;5.93;4.05;;;;;;;11.85;100.00;101382.50;2106085;28;20043;-75
2023/05/02 02:27:18;;;;;;;5.50;4.28;;;;;;;11.78;100.00;101383.22;2094773;28;20045;-75
2023/05/02 02:28:39;;;;;;;6.65;4.65;;;;;;;11.74;100.00;101391.06;2102825;28;20048;-75
2023/05/02 02:30:02;;;;;;;5.80;4.80;;;;;;;11.72;100.00;101383.06;2097074;28;20036;-75
2023/05/02 02:31:31;;;;;;;9.50;5.20;;;;;;;11.73;100.00;101376.03;2100075;28;20052;-75
2023/05/02 02:32:52;;;;;;;8.30;5.00;;;;;;;11.74;100.00;101377.84;2098156;28;20063;-75
2023/05/02 02:34:14;;;;;;;6.18;4.57;;;;;;;11.75;100.00;101369.91;2100376;28;20056;-75
2023/05/02 02:35:42;;;;;;;6.65;4.53;;;;;;;11.76;100.00;101366.41;2097203;28;20048;-75
2023/05/02 02:37:09;;;;;;;7.22;4.60;;;;;;;11.77;100.00;101368.22;2102724;28;20048;-75
2023/05/02 02:38:39;;;;;;;6.38;4.95;;;;;;;11.80;100.00;101367.38;2103659;28;20048;-75
2023/05/02 02:40:09;;;;;;;6.13;5.10;;;;;;;11.80;100.00;101367.38;2096084;28;20043;-75
2023/05/02 02:41:38;;;;;;;6.40;4.13;;;;;;;11.80;100.00;101370.94;2102819;28;20105;-75
2023/05/02 02:43:08;;;;;;;5.93;4.43;;;;;;;11.80;100.00;101377.97;2103476;28;20527;-75
2023/05/02 02:44:52;;;;;;;7.35;4.80;;;;;;;11.78;100.00;101370.00;2106297;28;20473;-76
2023/05/02 02:46:34;;;;;;;7.20;5.40;;;;;;;11.74;100.00;101372.56;2113354;28;20085;-75
2023/05/02 02:48:07;;;;;;;7.30;5.03;;;;;;;11.67;100.00;101379.44;2094754;28;20068;-75
2023/05/02 02:49:39;;;;;;;6.43;4.50;;;;;;;11.60;100.00;101377.53;2105375;28;20044;-75
2023/05/02 02:51:11;;;;;;;7.60;4.57;;;;;;;11.52;100.00;101381.75;2096017;28;20047;-75
2023/05/02 02:52:48;;;;;;;9.38;5.07;;;;;;;11.47;100.00;101380.75;2094257;28;20052;-74
2023/05/02 02:54:14;;;;;;;7.70;4.93;;;;;;;11.49;100.00;101379.03;2094398;28;20045;-75
2023/05/02 02:55:45;;;;;;;6.30;4.72;;;;;;;11.55;100.00;101385.34;2095435;28;20492;-75
2023/05/02 02:57:16;;;;;;;6.63;4.93;;;;;;;11.61;100.00;101389.88;2098173;28;20044;-75
2023/05/02 02:58:46;;;;;;;7.63;4.88;;;;;;;11.65;100.00;101393.47;2094984;28;20045;-75
2023/05/02 03:00:16;;;;;;;6.65;4.55;;;;;;;11.67;100.00;101390.00;2095605;28;20098;-75
2023/05/02 03:01:42;;;;;;;6.53;4.13;;;;;;;11.68;100.00;101385.63;2097710;28;20524;-75
2023/05/02 03:03:07;;;;;;;6.28;4.40;;;;;;;11.69;100.00;101380.34;2111808;28;20128;-75
2023/05/02 03:04:30;;;;;;;9.20;4.07;;;;;;;11.71;100.00;101383.03;2096758;28;20048;-75
2023/05/02 03:05:53;;;;;;;5.97;4.85;;;;;;;11.72;100.00;101388.34;2097563;28;20036;-74
2023/05/02 03:07:16;;;;;;;6.38;4.18;;;;;;;11.74;100.00;101394.63;2091802;28;20139;-75
2023/05/02 03:08:40;;;;;;;8.27;5.10;;;;;;;11.77;100.00;101393.75;2092601;28;20071;-76
2023/05/02 03:10:06;;;;;;;6.28;4.57;;;;;;;11.76;100.00;101399.91;2092747;28;20095;-75
2023/05/02 03:11:30;;;;;;;7.57;4.75;;;;;;;11.73;100.00;101398.09;2091867;28;20786;-75
2023/05/02 03:12:54;;;;;;;8.75;4.80;;;;;;;11.72;100.00;101398.03;2096832;28;20075;-74
2023/05/02 03:14:18;;;;;;;6.85;4.85;;;;;;;11.70;100.00;101394.47;2095305;28;20400;-75
2023/05/02 03:16:23;;;;;;;5.35;4.50;;;;;;;11.71;100.00;101394.50;2094754;28;20126;-75
2023/05/02 03:17:47;;;;;;;6.75;5.10;;;;;;;11.69;100.00;101390.03;2113035;28;20039;-75
2023/05/02 03:19:09;;;;;;;7.53;4.90;;;;;;;11.70;100.00;101398.00;2104903;28;20658;-75
2023/05/02 03:20:32;;;;;;;7.03;5.63;;;;;;;11.73;100.00;101397.19;2102241;28;20139;-75
2023/05/02 03:21:56;;;;;;;8.65;5.78;;;;;;;11.73;100.00;101399.81;2093823;28;20048;-75
2023/05/02 03:23:19;;;;;;;9.75;5.57;;;;;;;11.72;100.00;101408.63;2097085;28;20527;-75
2023/05/02 03:24:45;;;;;;;7.75;5.30;;;;;;;11.64;100.00;101403.16;2097491;28;20036;-75
2023/05/02 03:26:09;;;;;;;7.60;5.30;;;;;;;11.56;100.00;101403.00;2094913;28;20082;-75
2023/05/02 03:27:32;;;;;;;6.13;4.65;;;;;;;11.54;100.00;101406.47;2086564;28;20061;-75
2023/05/02 03:28:57;;;;;;;7.68;4.90;;;;;;;11.55;100.00;101402.97;2084552;28;20469;-75
2023/05/02 03:30:25;;;;;;;8.35;5.03;;;;;;;11.57;100.00;101406.53;2093719;28;20045;-75
2023/05/02 03:31:48;;;;;;;6.53;4.80;;;;;;;11.61;100.00;101411.03;2084356;28;20057;-76
2023/05/02 03:33:11;;;;;;;6.95;4.82;;;;;;;11.65;100.00;101412.00;2100677;28;20036;-75
2023/05/02 03:34:36;;;;;;;8.90;5.50;;;;;;;11.67;100.00;101412.94;2094905;28;20052;-75
2023/05/02 03:35:58;;;;;;;7.75;4.88;;;;;;;11.69;100.00;101419.13;2092121;28;20651;-75
2023/05/02 03:37:21;;;;;;;6.70;4.75;;;;;;;11.67;100.00;101413.81;2098409;28;20073;-75
2023/05/02 03:38:42;;;;;;;7.35;4.78;;;;;;;11.64;100.00;101416.38;2111165;28;20047;-75
2023/05/02 03:40:08;;;;;;;7.38;4.47;;;;;;;11.64;100.00;101407.56;2096247;28;20163;-75
2023/05/02 03:41:29;;;;;;;7.88;4.15;;;;;;;11.64;100.00;101408.44;2104027;28;20044;-75
2023/05/02 03:42:58;;;;;;;6.13;3.85;;;;;;;11.69;100.00;101411.19;2103685;28;20048;-75
2023/05/02 03:44:25;;;;;;;7.72;4.55;;;;;;;11.76;100.00;101398.16;2103335;28;20047;-75
2023/05/02 03:45:47;;;;;;;5.30;3.92;;;;;;;11.85;100.00;101402.75;2094192;28;20043;-75
2023/05/02 03:47:12;;;;;;;6.35;4.30;;;;;;;11.94;100.00;101398.56;2098404;28;20461;-75
2023/05/02 03:48:37;;;;;;;7.53;4.63;;;;;;;12.04;100.00;101410.22;2089194;28;20044;-75
2023/05/02 03:49:59;;;;;;;8.18;4.28;;;;;;;12.14;100.00;101400.72;2100460;28;20142;-75
2023/05/02 03:51:23;;;;;;;6.95;4.35;;;;;;;12.22;100.00;101401.72;2095042;28;20522;-75
2023/05/02 03:52:47;;;;;;;7.38;4.13;;;;;;;12.28;100.00;101400.09;2093073;28;20036;-75
2023/05/02 03:54:11;;;;;;;6.30;3.70;;;;;;;12.33;100.00;101398.44;2092765;28;20045;-75
2023/05/02 03:55:40;;;;;;;8.35;4.15;;;;;;;12.41;100.00;101403.84;2090516;28;20102;-76
2023/05/02 03:57:05;;;;;;;5.80;4.38;;;;;;;12.50;100.00;101405.78;2091724;28;20409;-76
2023/05/02 03:58:27;;;;;;;6.75;3.78;;;;;;;12.59;100.00;101409.50;2094304;28;20052;-76
2023/05/02 03:59:50;;;;;;;8.10;3.83;;;;;;;12.67;100.00;101413.16;2085858;28;20037;-76
2023/05/02 04:01:20;;;;;;;6.57;3.88;;;;;;;12.77;100.00;101401.88;2095311;28;20072;-76
2023/05/02 04:02:44;;;;;;;5.15;3.90;;;;;;;12.87;100.00;101409.94;2106143;28;20134;-77
2023/05/02 04:04:11;;;;;;;6.40;4.00;;;;;;;12.94;100.00;101415.38;2095523;28;20040;-76
2023/05/02 04:05:40;;;;;;;6.30;3.80;;;;;;;12.98;100.00;101419.88;2110517;28;20040;-75
2023/05/02 04:07:03;;;;;;;5.53;3.58;;;;;;;13.03;100.00;101417.28;2100014;28;20445;-75
2023/05/02 04:08:27;;;;;;;7.50;3.78;;;;;;;13.06;100.00;101417.34;2094478;28;20056;-75
2023/05/02 04:09:48;;;;;;;6.72;4.10;;;;;;;13.08;100.00;101413.84;2104120;28;20070;-75
2023/05/02 04:11:11;;;;;;;5.80;3.75;;;;;;;13.11;100.00;101405.97;2088797;28;20114;-75
2023/05/02 04:12:32;;;;;;;6.50;4.07;;;;;;;13.16;100.00;101408.69;2096606;28;20047;-75
2023/05/02 04:13:54;;;;;;;5.18;3.80;;;;;;;13.20;100.00;101410.53;2097090;28;20044;-75
2023/05/02 04:15:16;;;;;;;7.90;3.65;;;;;;;13.27;100.00;101409.75;2093358;28;20131;-75
2023/05/02 04:16:39;;;;;;;6.82;3.55;;;;;;;13.38;100.00;101410.81;2094523;28;20054;-74
2023/05/02 04:18:01;;;;;;;5.90;3.67;;;;;;;13.52;100.00;101413.66;2102821;28;20166;-75
2023/05/02 04:19:26;;;;;;;5.25;3.38;;;;;;;13.65;100.00;101412.06;2094238;28;20097;-75
2023/05/02 04:20:49;;;;;;;6.70;3.90;;;;;;;13.75;100.00;101416.63;2091024;28;20552;-75
2023/05/02 04:22:12;;;;;;;6.70;3.50;;;;;;;13.87;100.00;101414.13;2091297;28;20151;-75
2023/05/02 04:23:40;;;;;;;7.50;3.80;;;;;;;13.96;100.00;101407.19;2091882;28;20048;-75
2023/05/02 04:25:01;;;;;;;5.57;3.40;;;;;;;14.05;100.00;101403.72;2093339;28;20763;-75
2023/05/02 04:26:24;;;;;;;8.23;3.65;;;;;;;14.14;100.00;101403.84;2091128;28;20079;-75
2023/05/02 04:27:54;;;;;;;5.07;3.40;;;;;;;14.22;100.00;101402.16;2093631;28;20114;-74
2023/05/02 04:29:18;;;;;;;6.40;3.67;;;;;;;14.33;100.00;101404.91;2094427;28;20048;-75
2023/05/02 04:30:40;;;;;;;7.47;3.60;;;;;;;14.46;100.00;101406.84;2090151;28;20041;-75
2023/05/02 04:32:06;;;;;;;4.60;3.50;;;;;;;14.59;100.00;101402.56;2092387;28;20103;-74
2023/05/02 04:33:29;;;;;;;6.43;3.28;;;;;;;14.71;100.00;101411.53;2101416;28;20281;-75
2023/05/02 04:34:53;;;;;;;6.93;3.65;;;;;;;14.83;100.00;101408.13;2094139;28;20056;-75
2023/05/02 04:36:17;;;;;;;4.90;3.20;;;;;;;14.88;100.00;101400.16;2092431;28;20036;-75
2023/05/02 04:37:41;;;;;;;6.18;3.83;;;;;;;14.87;100.00;101399.28;2091821;28;20051;-75
2023/05/02 04:39:06;;;;;;;6.13;3.85;;;;;;;14.88;100.00;101400.16;2091499;28;20072;-75
2023/05/02 04:40:31;;;;;;;6.28;4.05;;;;;;;14.98;100.00;101397.59;2092993;28;20135;-75
2023/05/02 04:41:59;;;;;;;7.50;3.90;;;;;;;15.12;100.00;101405.66;2098697;28;20130;-75
2023/05/02 04:43:23;;;;;;;4.60;3.20;;;;;;;15.27;100.00;101399.56;2086239;28;20051;-75
2023/05/02 04:44:51;;;;;;;7.20;3.58;;;;;;;15.41;100.00;101392.56;2101966;28;20036;-75
2023/05/02 04:46:13;;;;;;;6.45;3.30;;;;;;;15.49;100.00;101402.34;2094102;28;20535;-75
2023/05/02 04:47:35;;;;;;;6.80;3.00;;;;;;;15.59;100.00;101410.44;2098357;28;20039;-76
2023/05/02 04:48:58;;;;;;;5.18;3.30;;;;;;;15.69;100.00;101409.59;2099624;28;20540;-75
2023/05/02 04:50:22;;;;;;;4.97;3.05;;;;;;;15.81;100.00;101407.91;2102494;28;20059;-76
2023/05/02 04:51:45;;;;;;;5.30;3.03;;;;;;;15.87;100.00;101412.38;2096547;28;20044;-75
2023/05/02 04:53:08;;;;;;;4.18;2.85;;;;;;;15.95;100.00;101411.50;2094955;28;20139;-75
2023/05/02 04:54:31;;;;;;;6.45;3.05;;;;;;;16.07;100.00;101407.13;2098096;28;20071;-75
2023/05/02 04:55:54;;;;;;;6.13;3.30;;;;;;;16.14;100.00;101404.47;2090795;28;20033;-75
2023/05/02 04:57:16;;;;;;;4.88;3.00;;;;;;;16.27;100.00;101416.06;2096355;28;20052;-75
2023/05/02 04:58:43;;;;;;;6.65;2.75;;;;;;;16.41;100.00;101414.28;2080255;28;20136;-75
2023/05/02 05:00:08;;;;;;;7.07;3.60;;;;;;;16.53;100.00;101424.13;2087973;28;20496;-75
2023/05/02 05:01:30;;;;;;;7.78;3.80;;;;;;;16.59;100.00;101430.34;2092562;28;20599;-75
2023/05/02 05:02:53;;;;;;;7.70;3.17;;;;;;;16.66;100.00;101425.94;2095987;28;20040;-75
2023/05/02 05:04:15;;;;;;;5.68;2.85;;;;;;;16.71;100.00;101425.06;2102165;28;20126;-75
2023/05/02 05:05:39;;;;;;;5.90;2.70;;;;;;;16.81;100.00;101425.06;2095243;28;20056;-75
2023/05/02 05:07:03;;;;;;;5.40;2.60;;;;;;;16.96;100.00;101420.63;2092493;28;20032;-75
2023/05/02 05:08:27;;;;;;;6.15;3.15;;;;;;;17.16;100.00;101431.28;2103054;28;20097;-75
2023/05/02 05:09:49;;;;;;;7.22;2.70;;;;;;;17.36;100.00;101424.16;2092422;28;20154;-75
2023/05/02 05:11:12;;;;;;;4.57;2.58;;;;;;;17.57;100.00;101422.34;2085546;28;20140;-75
2023/05/02 05:12:35;;;;;;;3.17;2.30;;;;;;;17.76;100.00;101416.09;2087319;28;20055;-76
2023/05/02 05:13:57;;;;;;;3.72;2.55;;;;;;;17.98;100.00;101422.25;2083118;28;20047;-75
2023/05/02 05:15:22;;;;;;;5.80;2.80;;;;;;;18.19;100.00;101432.81;2090890;28;20037;-75
2023/05/02 05:16:51;;;;;;;3.00;2.35;;;;;;;18.43;100.00;101426.47;2093160;28;20080;-75
2023/05/02 05:18:13;;;;;;;4.35;2.35;;;;;;;18.69;100.00;101428.09;2092446;28;20044;-75
2023/05/02 05:19:35;;;;;;;4.05;2.53;;;;;;;18.94;100.00;101425.25;2097432;28;20047;-75
2023/05/02 05:20:59;;;;;;;5.47;2.22;;;;;;;19.22;98.89;101431.25;2093541;28;20121;-75
2023/05/02 05:22:21;;;;;;;3.53;2.10;;;;;;;19.50;96.04;101424.72;2098355;28;20392;-76
2023/05/02 05:23:44;;;;;;;5.13;2.30;;;;;;;19.78;93.81;101428.91;2101218;28;20044;-76
2023/05/02 05:25:10;;;;;;;7.28;2.65;;;;;;;19.96;92.13;101434.94;2092025;28;20493;-76
2023/05/02 05:26:33;;;;;;;5.97;2.50;;;;;;;20.07;91.11;101431.25;2094253;28;20040;-76
2023/05/02 05:27:56;;;;;;;3.90;2.28;;;;;;;20.14;88.79;101437.41;2092220;28;20048;-75
2023/05/02 05:29:19;;;;;;;5.75;2.30;;;;;;;20.11;87.95;101438.31;2103274;28;20126;-76
2023/05/02 05:30:41;;;;;;;4.70;2.40;;;;;;;20.06;86.83;101445.53;2103324;28;20568;-75
2023/05/02 05:32:06;;;;;;;4.55;1.95;;;;;;;20.18;84.35;101442.69;2094128;28;20056;-75
2023/05/02 05:33:30;;;;;;;5.28;2.40;;;;;;;20.42;78.92;101449.56;2093461;28;20130;-76
2023/05/02 05:34:53;;;;;;;6.28;2.47;;;;;;;20.70;74.56;101450.06;2100003;28;20108;-75
2023/05/02 05:36:19;;;;;;;3.45;2.22;;;;;;;20.99;71.34;101446.94;2093340;28;20068;-76
2023/05/02 05:37:42;;;;;;;3.20;2.20;;;;;;;21.23;69.83;101451.91;2100022;28;20776;-76
2023/05/02 05:39:08;;;;;;;4.03;2.15;;;;;;;21.37;70.09;101449.88;2093234;28;20083;-76
2023/05/02 05:40:32;;;;;;;4.38;2.17;;;;;;;21.54;69.46;101445.97;2094023;28;20524;-75
2023/05/02 05:41:56;;;;;;;5.57;2.47;;;;;;;21.67;67.84;101443.03;2091297;28;20056;-76
2023/05/02 05:43:19;;;;;;;4.45;2.60;;;;;;;21.71;67.17;101442.06;2089735;28;20135;-76
2023/05/02 05:44:42;;;;;;;3.50;1.90;;;;;;;21.79;63.16;101432.03;2089764;28;20097;-76
2023/05/02 05:46:05;;;;;;;4.13;2.00;;;;;;;21.82;59.33;101433.78;2088791;28;20048;-76
2023/05/02 05:47:29;;;;;;;3.97;2.33;;;;;;;21.87;57.39;101427.41;2090536;28;20106;-76
2023/05/02 05:48:52;;;;;;;5.80;2.10;;;;;;;21.87;57.06;101423.81;2086567;28;20041;-76
2023/05/02 05:50:15;;;;;;;3.53;1.98;;;;;;;21.86;56.74;101427.41;2085594;28;20131;-76
2023/05/02 05:51:40;;;;;;;3.83;2.30;;;;;;;21.83;57.76;101435.56;2089689;28;20082;-76
2023/05/02 05:53:04;;;;;;;3.88;2.30;;;;;;;21.69;59.16;101435.84;2089192;28;20587;-76
2023/05/02 05:54:26;;;;;;;5.97;2.28;;;;;;;21.57;58.70;101440.56;2087218;28;20075;-76
2023/05/02 05:55:51;;;;;;;5.45;2.40;;;;;;;21.33;57.13;101439.22;2094083;28;20067;-77
2023/05/02 05:57:14;;;;;;;3.97;2.17;;;;;;;21.11;57.17;101435.97;2093943;28;20400;-76
2023/05/02 05:58:38;;;;;;;3.72;2.22;;;;;;;20.94;57.76;101436.25;2086502;28;20048;-76
2023/05/02 06:00:01;;;;;;;6.80;2.70;;;;;;;20.82;58.02;101432.88;2102181;28;20036;-76
2023/05/02 06:01:23;;;;;;;5.38;2.13;;;;;;;20.74;59.20;101429.44;2093710;28;20048;-76
2023/05/02 06:02:46;;;;;;;4.75;2.60;;;;;;;20.73;60.54;101430.34;2085928;28;20045;-76
2023/05/02 06:04:17;;;;;;;3.80;2.33;;;;;;;20.82;59.80;101422.13;2093225;28;20095;-76
2023/05/02 06:05:43;;;;;;;4.18;3.17;;;;;;;21.02;56.55;101417.31;2090123;28;20192;-76
2023/05/02 06:07:07;;;;;;;3.92;2.30;;;;;;;21.20;54.53;101408.13;2089598;28;20044;-76
2023/05/02 06:08:29;;;;;;;3.47;2.08;;;;;;;21.38;53.68;101413.16;2099646;28;20047;-76
2023/05/02 06:09:51;;;;;;;3.63;2.20;;;;;;;21.51;52.01;101414.69;2104732;28;20567;-77
2023/05/02 06:11:13;;;;;;;3.72;2.25;;;;;;;21.59;50.42;101411.88;2093689;28;20040;-76
2023/05/02 06:12:35;;;;;;;4.03;2.13;;;;;;;21.65;49.50;101412.63;2091276;28;20087;-76
2023/05/02 06:13:57;;;;;;;4.40;2.30;;;;;;;21.69;49.02;101419.72;2105495;28;20414;-76
2023/05/02 06:15:20;;;;;;;6.82;2.17;;;;;;;21.68;48.40;101417.03;2109316;28;20043;-76
2023/05/02 06:16:42;;;;;;;4.05;2.20;;;;;;;21.65;47.91;101419.81;2095291;28;20033;-76
2023/05/02 06:18:05;;;;;;;3.70;2.47;;;;;;;21.58;48.35;101416.34;2094345;28;20532;-76
2023/05/02 06:19:27;;;;;;;7.35;2.63;;;;;;;21.52;49.26;101418.28;2105680;28;20101;-77
2023/05/02 06:20:49;;;;;;;3.67;2.00;;;;;;;21.46;50.15;101417.44;2093855;28;20044;-77
2023/05/02 06:22:13;;;;;;;3.85;2.38;;;;;;;21.45;52.00;101423.75;2092394;28;20052;-75
2023/05/02 06:23:36;;;;;;;8.32;2.72;;;;;;;21.41;52.64;101435.47;2088551;28;20550;-76
2023/05/02 06:24:59;;;;;;;4.32;2.33;;;;;;;21.38;53.61;101430.16;2101968;28;20067;-77
2023/05/02 06:26:24;;;;;;;3.40;2.00;;;;;;;21.36;53.80;101431.09;2104313;28;20507;-77
2023/05/02 06:27:46;;;;;;;4.35;2.50;;;;;;;21.33;54.24;101437.38;2100400;28;20134;-77
2023/05/02 06:29:09;;;;;;;9.77;3.00;;;;;;;21.37;57.60;101430.19;2102463;28;20079;-77
2023/05/02 06:30:31;;;;;;;6.75;2.70;;;;;;;21.50;58.32;101431.72;2098518;28;20048;-78